sensor_id;sensor_type;location;lat;lon;timestamp;temperature;humidity
75500;DHT22;64076;51.466;7.260;2023-04-08T00:00:18;21.50;40.00
75500;DHT22;64076;51.466;7.260;2023-04-08T00:02:44;21.50;39.80
75500;DHT22;64076;51.466;7.260;2023-04-08T00:05:10;21.50;39.80
75500;DHT22;64076;51.466;7.260;2023-04-08T00:07:35;21.50;39.70
75500;DHT22;64076;51.466;7.260;2023-04-08T00:10:01;21.40;39.80
75500;DHT22;64076;51.466;7.260;2023-04-08T00:12:27;21.40;39.80
75500;DHT22;64076;51.466;7.260;2023-04-08T00:14:52;21.40;39.80
75500;DHT22;64076;51.466;7.260;2023-04-08T00:17:18;21.40;39.80
75500;DHT22;64076;51.466;7.260;2023-04-08T00:19:43;21.40;39.80
75500;DHT22;64076;51.466;7.260;2023-04-08T00:22:09;21.40;39.80
75500;DHT22;64076;51.466;7.260;2023-04-08T00:24:35;21.40;39.80
75500;DHT22;64076;51.466;7.260;2023-04-08T00:27:01;21.40;39.70
75500;DHT22;64076;51.466;7.260;2023-04-08T00:29:27;21.40;39.70
75500;DHT22;64076;51.466;7.260;2023-04-08T00:31:53;21.40;39.70
75500;DHT22;64076;51.466;7.260;2023-04-08T00:34:18;21.40;39.70
75500;DHT22;64076;51.466;7.260;2023-04-08T00:36:44;21.40;39.70
75500;DHT22;64076;51.466;7.260;2023-04-08T00:39:11;21.40;39.70
75500;DHT22;64076;51.466;7.260;2023-04-08T00:41:37;21.40;39.70
75500;DHT22;64076;51.466;7.260;2023-04-08T00:44:02;21.40;39.70
75500;DHT22;64076;51.466;7.260;2023-04-08T00:46:28;21.40;39.60
75500;DHT22;64076;51.466;7.260;2023-04-08T00:48:53;21.40;39.60
75500;DHT22;64076;51.466;7.260;2023-04-08T00:51:19;21.40;39.60
75500;DHT22;64076;51.466;7.260;2023-04-08T00:53:45;21.40;39.60
75500;DHT22;64076;51.466;7.260;2023-04-08T00:56:11;21.40;39.60
75500;DHT22;64076;51.466;7.260;2023-04-08T00:58:37;21.30;39.60
75500;DHT22;64076;51.466;7.260;2023-04-08T01:01:06;21.40;39.60
75500;DHT22;64076;51.466;7.260;2023-04-08T01:04:01;21.40;39.60
75500;DHT22;64076;51.466;7.260;2023-04-08T01:06:49;21.40;39.60
75500;DHT22;64076;51.466;7.260;2023-04-08T01:09:18;21.40;39.50
75500;DHT22;64076;51.466;7.260;2023-04-08T01:11:49;21.40;39.50
75500;DHT22;64076;51.466;7.260;2023-04-08T01:14:18;21.30;39.50
75500;DHT22;64076;51.466;7.260;2023-04-08T01:16:45;21.30;39.50
75500;DHT22;64076;51.466;7.260;2023-04-08T01:19:16;21.30;39.50
75500;DHT22;64076;51.466;7.260;2023-04-08T01:21:45;21.30;39.50
75500;DHT22;64076;51.466;7.260;2023-04-08T01:24:30;21.30;39.50
75500;DHT22;64076;51.466;7.260;2023-04-08T01:26:57;21.30;39.50
75500;DHT22;64076;51.466;7.260;2023-04-08T01:29:24;21.30;39.50
75500;DHT22;64076;51.466;7.260;2023-04-08T01:31:52;21.30;39.50
75500;DHT22;64076;51.466;7.260;2023-04-08T01:34:20;21.30;39.40
75500;DHT22;64076;51.466;7.260;2023-04-08T01:36:47;21.30;39.40
75500;DHT22;64076;51.466;7.260;2023-04-08T01:39:14;21.30;39.30
75500;DHT22;64076;51.466;7.260;2023-04-08T01:41:42;21.30;39.30
75500;DHT22;64076;51.466;7.260;2023-04-08T01:44:09;21.30;39.30
75500;DHT22;64076;51.466;7.260;2023-04-08T01:46:36;21.30;39.30
75500;DHT22;64076;51.466;7.260;2023-04-08T01:49:04;21.30;39.30
75500;DHT22;64076;51.466;7.260;2023-04-08T01:51:30;21.30;39.30
75500;DHT22;64076;51.466;7.260;2023-04-08T01:53:57;21.30;39.30
75500;DHT22;64076;51.466;7.260;2023-04-08T01:56:25;21.20;39.20
75500;DHT22;64076;51.466;7.260;2023-04-08T01:58:53;21.30;39.20
75500;DHT22;64076;51.466;7.260;2023-04-08T02:01:22;21.20;39.30
75500;DHT22;64076;51.466;7.260;2023-04-08T02:03:50;21.20;39.20
75500;DHT22;64076;51.466;7.260;2023-04-08T02:06:17;21.20;39.30
75500;DHT22;64076;51.466;7.260;2023-04-08T02:08:43;21.20;39.10
75500;DHT22;64076;51.466;7.260;2023-04-08T02:11:08;21.20;39.10
75500;DHT22;64076;51.466;7.260;2023-04-08T02:13:37;21.20;39.10
75500;DHT22;64076;51.466;7.260;2023-04-08T02:18:42;21.20;39.10
75500;DHT22;64076;51.466;7.260;2023-04-08T02:21:13;21.20;39.00
75500;DHT22;64076;51.466;7.260;2023-04-08T02:23:40;21.20;38.90
75500;DHT22;64076;51.466;7.260;2023-04-08T02:26:11;21.20;38.90
75500;DHT22;64076;51.466;7.260;2023-04-08T02:28:38;21.20;39.00
75500;DHT22;64076;51.466;7.260;2023-04-08T02:31:05;21.20;38.90
75500;DHT22;64076;51.466;7.260;2023-04-08T02:33:33;21.20;38.90
75500;DHT22;64076;51.466;7.260;2023-04-08T02:36:00;21.20;38.80
75500;DHT22;64076;51.466;7.260;2023-04-08T02:38:27;21.20;38.80
75500;DHT22;64076;51.466;7.260;2023-04-08T02:40:55;21.20;38.80
75500;DHT22;64076;51.466;7.260;2023-04-08T02:43:20;21.20;38.80
75500;DHT22;64076;51.466;7.260;2023-04-08T02:45:46;21.20;38.80
75500;DHT22;64076;51.466;7.260;2023-04-08T02:48:12;21.20;38.80
75500;DHT22;64076;51.466;7.260;2023-04-08T02:50:37;21.20;38.70
75500;DHT22;64076;51.466;7.260;2023-04-08T02:53:04;21.20;38.70
75500;DHT22;64076;51.466;7.260;2023-04-08T02:55:30;21.20;38.70
75500;DHT22;64076;51.466;7.260;2023-04-08T02:57:55;21.20;38.70
75500;DHT22;64076;51.466;7.260;2023-04-08T03:00:21;21.20;38.70
75500;DHT22;64076;51.466;7.260;2023-04-08T03:02:46;21.20;38.60
75500;DHT22;64076;51.466;7.260;2023-04-08T03:05:12;21.20;38.60
75500;DHT22;64076;51.466;7.260;2023-04-08T03:07:37;21.20;38.60
75500;DHT22;64076;51.466;7.260;2023-04-08T03:10:03;21.20;38.60
75500;DHT22;64076;51.466;7.260;2023-04-08T03:12:29;21.20;38.60
75500;DHT22;64076;51.466;7.260;2023-04-08T03:14:55;21.20;38.60
75500;DHT22;64076;51.466;7.260;2023-04-08T03:17:21;21.20;38.60
75500;DHT22;64076;51.466;7.260;2023-04-08T03:19:47;21.20;38.60
75500;DHT22;64076;51.466;7.260;2023-04-08T03:22:12;21.20;38.60
75500;DHT22;64076;51.466;7.260;2023-04-08T03:24:38;21.20;38.60
75500;DHT22;64076;51.466;7.260;2023-04-08T03:27:04;21.20;38.60
75500;DHT22;64076;51.466;7.260;2023-04-08T03:29:29;21.10;38.60
75500;DHT22;64076;51.466;7.260;2023-04-08T03:31:55;21.10;38.60
75500;DHT22;64076;51.466;7.260;2023-04-08T03:34:20;21.10;38.60
75500;DHT22;64076;51.466;7.260;2023-04-08T03:36:46;21.10;38.60
75500;DHT22;64076;51.466;7.260;2023-04-08T03:39:13;21.10;38.50
75500;DHT22;64076;51.466;7.260;2023-04-08T03:41:38;21.10;38.60
75500;DHT22;64076;51.466;7.260;2023-04-08T03:44:04;21.10;38.50
75500;DHT22;64076;51.466;7.260;2023-04-08T03:46:29;21.10;38.60
75500;DHT22;64076;51.466;7.260;2023-04-08T03:48:55;21.10;38.50
75500;DHT22;64076;51.466;7.260;2023-04-08T03:51:20;21.10;38.50
75500;DHT22;64076;51.466;7.260;2023-04-08T03:53:46;21.10;38.50
75500;DHT22;64076;51.466;7.260;2023-04-08T03:56:13;21.10;38.50
75500;DHT22;64076;51.466;7.260;2023-04-08T03:58:39;21.10;38.50
75500;DHT22;64076;51.466;7.260;2023-04-08T04:01:04;21.10;38.40
75500;DHT22;64076;51.466;7.260;2023-04-08T04:03:30;21.10;38.40
75500;DHT22;64076;51.466;7.260;2023-04-08T04:05:56;21.10;38.40
75500;DHT22;64076;51.466;7.260;2023-04-08T04:08:21;21.10;38.40
75500;DHT22;64076;51.466;7.260;2023-04-08T04:10:47;21.10;38.40
75500;DHT22;64076;51.466;7.260;2023-04-08T04:13:12;21.10;38.40
75500;DHT22;64076;51.466;7.260;2023-04-08T04:15:39;21.10;38.40
75500;DHT22;64076;51.466;7.260;2023-04-08T04:18:05;21.10;38.30
75500;DHT22;64076;51.466;7.260;2023-04-08T04:20:31;21.10;38.30
75500;DHT22;64076;51.466;7.260;2023-04-08T04:22:56;21.10;38.30
75500;DHT22;64076;51.466;7.260;2023-04-08T04:25:23;21.10;38.20
75500;DHT22;64076;51.466;7.260;2023-04-08T04:27:49;21.10;38.20
75500;DHT22;64076;51.466;7.260;2023-04-08T04:30:14;21.10;38.20
75500;DHT22;64076;51.466;7.260;2023-04-08T04:32:41;21.10;38.20
75500;DHT22;64076;51.466;7.260;2023-04-08T04:35:08;21.10;38.20
75500;DHT22;64076;51.466;7.260;2023-04-08T04:37:34;21.20;38.20
75500;DHT22;64076;51.466;7.260;2023-04-08T04:39:59;21.10;38.20
75500;DHT22;64076;51.466;7.260;2023-04-08T04:42:25;21.10;38.10
75500;DHT22;64076;51.466;7.260;2023-04-08T04:44:51;21.10;38.20
75500;DHT22;64076;51.466;7.260;2023-04-08T04:47:16;21.10;38.20
75500;DHT22;64076;51.466;7.260;2023-04-08T04:49:43;21.10;38.20
75500;DHT22;64076;51.466;7.260;2023-04-08T04:52:10;21.10;38.10
75500;DHT22;64076;51.466;7.260;2023-04-08T04:54:35;21.10;38.20
75500;DHT22;64076;51.466;7.260;2023-04-08T04:57:01;21.10;38.20
75500;DHT22;64076;51.466;7.260;2023-04-08T04:59:26;21.10;38.20
75500;DHT22;64076;51.466;7.260;2023-04-08T05:01:52;21.10;38.20
75500;DHT22;64076;51.466;7.260;2023-04-08T05:04:17;21.10;38.20
75500;DHT22;64076;51.466;7.260;2023-04-08T05:06:43;21.00;38.20
75500;DHT22;64076;51.466;7.260;2023-04-08T05:09:08;21.00;38.20
75500;DHT22;64076;51.466;7.260;2023-04-08T05:11:34;21.00;38.20
75500;DHT22;64076;51.466;7.260;2023-04-08T05:13:59;21.00;38.20
75500;DHT22;64076;51.466;7.260;2023-04-08T05:16:25;21.00;38.10
75500;DHT22;64076;51.466;7.260;2023-04-08T05:18:51;20.90;38.00
75500;DHT22;64076;51.466;7.260;2023-04-08T05:21:16;20.90;38.00
75500;DHT22;64076;51.466;7.260;2023-04-08T05:23:42;21.00;37.90
75500;DHT22;64076;51.466;7.260;2023-04-08T05:26:07;21.00;37.90
75500;DHT22;64076;51.466;7.260;2023-04-08T05:28:33;21.00;37.80
75500;DHT22;64076;51.466;7.260;2023-04-08T05:30:59;21.00;37.70
75500;DHT22;64076;51.466;7.260;2023-04-08T05:33:28;21.00;37.70
75500;DHT22;64076;51.466;7.260;2023-04-08T05:35:53;21.10;37.60
75500;DHT22;64076;51.466;7.260;2023-04-08T05:38:19;21.10;37.60
75500;DHT22;64076;51.466;7.260;2023-04-08T05:40:44;21.10;37.50
75500;DHT22;64076;51.466;7.260;2023-04-08T05:43:10;21.10;37.50
75500;DHT22;64076;51.466;7.260;2023-04-08T05:45:35;21.10;37.50
75500;DHT22;64076;51.466;7.260;2023-04-08T05:48:01;21.10;37.50
75500;DHT22;64076;51.466;7.260;2023-04-08T05:50:26;21.10;37.50
75500;DHT22;64076;51.466;7.260;2023-04-08T05:52:52;21.20;37.50
75500;DHT22;64076;51.466;7.260;2023-04-08T05:55:17;21.20;37.50
75500;DHT22;64076;51.466;7.260;2023-04-08T05:57:43;21.20;37.50
75500;DHT22;64076;51.466;7.260;2023-04-08T06:00:09;21.20;37.50
75500;DHT22;64076;51.466;7.260;2023-04-08T06:02:35;21.20;37.50
75500;DHT22;64076;51.466;7.260;2023-04-08T06:05:02;21.20;37.60
75500;DHT22;64076;51.466;7.260;2023-04-08T06:07:28;21.20;37.60
75500;DHT22;64076;51.466;7.260;2023-04-08T06:09:54;21.20;37.60
75500;DHT22;64076;51.466;7.260;2023-04-08T06:12:20;21.20;37.60
75500;DHT22;64076;51.466;7.260;2023-04-08T06:14:45;21.20;37.60
75500;DHT22;64076;51.466;7.260;2023-04-08T06:17:11;21.30;37.70
75500;DHT22;64076;51.466;7.260;2023-04-08T06:19:36;21.30;37.70
75500;DHT22;64076;51.466;7.260;2023-04-08T06:22:02;21.30;37.70
75500;DHT22;64076;51.466;7.260;2023-04-08T06:24:27;21.30;37.70
75500;DHT22;64076;51.466;7.260;2023-04-08T06:26:54;21.30;37.70
75500;DHT22;64076;51.466;7.260;2023-04-08T06:29:20;21.30;37.80
75500;DHT22;64076;51.466;7.260;2023-04-08T06:31:46;21.30;37.80
75500;DHT22;64076;51.466;7.260;2023-04-08T06:34:12;21.30;37.90
75500;DHT22;64076;51.466;7.260;2023-04-08T06:36:37;21.30;38.00
75500;DHT22;64076;51.466;7.260;2023-04-08T06:39:03;21.30;38.00
75500;DHT22;64076;51.466;7.260;2023-04-08T06:41:29;21.30;38.00
75500;DHT22;64076;51.466;7.260;2023-04-08T06:43:55;21.30;38.00
75500;DHT22;64076;51.466;7.260;2023-04-08T06:46:20;21.40;38.00
75500;DHT22;64076;51.466;7.260;2023-04-08T06:48:46;21.30;38.10
75500;DHT22;64076;51.466;7.260;2023-04-08T06:51:12;21.30;38.10
75500;DHT22;64076;51.466;7.260;2023-04-08T06:53:37;21.30;38.10
75500;DHT22;64076;51.466;7.260;2023-04-08T06:56:03;21.30;38.10
75500;DHT22;64076;51.466;7.260;2023-04-08T06:58:29;21.30;38.10
75500;DHT22;64076;51.466;7.260;2023-04-08T07:00:54;21.40;38.10
75500;DHT22;64076;51.466;7.260;2023-04-08T07:03:21;21.40;38.10
75500;DHT22;64076;51.466;7.260;2023-04-08T07:05:46;21.40;38.10
75500;DHT22;64076;51.466;7.260;2023-04-08T07:08:12;21.40;38.10
75500;DHT22;64076;51.466;7.260;2023-04-08T07:10:38;21.40;38.10
75500;DHT22;64076;51.466;7.260;2023-04-08T07:13:03;21.40;38.20
75500;DHT22;64076;51.466;7.260;2023-04-08T07:15:29;21.40;38.20
75500;DHT22;64076;51.466;7.260;2023-04-08T07:17:54;21.40;38.20
75500;DHT22;64076;51.466;7.260;2023-04-08T07:20:24;21.40;38.20
75500;DHT22;64076;51.466;7.260;2023-04-08T07:22:50;21.40;38.20
75500;DHT22;64076;51.466;7.260;2023-04-08T07:25:16;21.40;38.20
75500;DHT22;64076;51.466;7.260;2023-04-08T07:27:42;21.40;38.20
75500;DHT22;64076;51.466;7.260;2023-04-08T07:30:08;21.40;38.20
75500;DHT22;64076;51.466;7.260;2023-04-08T07:32:33;21.40;38.20
75500;DHT22;64076;51.466;7.260;2023-04-08T07:35:00;21.50;38.20
75500;DHT22;64076;51.466;7.260;2023-04-08T07:37:26;21.50;38.20
75500;DHT22;64076;51.466;7.260;2023-04-08T07:39:52;21.50;38.20
75500;DHT22;64076;51.466;7.260;2023-04-08T07:42:17;21.50;38.20
75500;DHT22;64076;51.466;7.260;2023-04-08T07:44:46;21.50;38.10
75500;DHT22;64076;51.466;7.260;2023-04-08T07:47:11;21.60;38.10
75500;DHT22;64076;51.466;7.260;2023-04-08T07:49:37;21.60;38.00
75500;DHT22;64076;51.466;7.260;2023-04-08T07:52:03;21.60;38.00
75500;DHT22;64076;51.466;7.260;2023-04-08T07:54:32;21.60;38.00
75500;DHT22;64076;51.466;7.260;2023-04-08T07:57:01;21.60;37.90
75500;DHT22;64076;51.466;7.260;2023-04-08T07:59:28;21.60;37.80
75500;DHT22;64076;51.466;7.260;2023-04-08T08:01:53;21.60;37.70
75500;DHT22;64076;51.466;7.260;2023-04-08T08:04:19;21.60;37.60
75500;DHT22;64076;51.466;7.260;2023-04-08T08:06:46;21.70;37.50
75500;DHT22;64076;51.466;7.260;2023-04-08T08:09:12;21.70;37.40
75500;DHT22;64076;51.466;7.260;2023-04-08T08:11:37;21.70;37.30
75500;DHT22;64076;51.466;7.260;2023-04-08T08:14:03;21.70;37.20
75500;DHT22;64076;51.466;7.260;2023-04-08T08:16:29;21.70;37.10
75500;DHT22;64076;51.466;7.260;2023-04-08T08:18:59;21.70;37.00
75500;DHT22;64076;51.466;7.260;2023-04-08T08:21:24;21.70;36.90
75500;DHT22;64076;51.466;7.260;2023-04-08T08:23:51;21.70;36.70
75500;DHT22;64076;51.466;7.260;2023-04-08T08:26:17;21.70;36.50
75500;DHT22;64076;51.466;7.260;2023-04-08T08:28:42;21.70;36.40
75500;DHT22;64076;51.466;7.260;2023-04-08T08:31:08;21.70;36.20
75500;DHT22;64076;51.466;7.260;2023-04-08T08:33:34;21.70;36.00
75500;DHT22;64076;51.466;7.260;2023-04-08T08:35:59;21.70;35.90
75500;DHT22;64076;51.466;7.260;2023-04-08T08:38:25;21.70;35.90
75500;DHT22;64076;51.466;7.260;2023-04-08T08:40:55;21.70;35.70
75500;DHT22;64076;51.466;7.260;2023-04-08T08:43:21;21.70;35.70
75500;DHT22;64076;51.466;7.260;2023-04-08T08:45:47;21.70;35.70
75500;DHT22;64076;51.466;7.260;2023-04-08T08:48:12;21.70;35.70
75500;DHT22;64076;51.466;7.260;2023-04-08T08:50:38;21.70;35.60
75500;DHT22;64076;51.466;7.260;2023-04-08T08:53:03;21.70;35.50
75500;DHT22;64076;51.466;7.260;2023-04-08T08:55:30;21.70;35.50
75500;DHT22;64076;51.466;7.260;2023-04-08T08:57:58;21.70;35.50
75500;DHT22;64076;51.466;7.260;2023-04-08T09:00:34;21.70;35.50
75500;DHT22;64076;51.466;7.260;2023-04-08T09:03:15;21.70;35.40
75500;DHT22;64076;51.466;7.260;2023-04-08T09:08:33;21.80;35.30
75500;DHT22;64076;51.466;7.260;2023-04-08T09:11:19;21.80;35.20
75500;DHT22;64076;51.466;7.260;2023-04-08T09:13:46;21.80;35.10
75500;DHT22;64076;51.466;7.260;2023-04-08T09:16:13;21.80;35.10
75500;DHT22;64076;51.466;7.260;2023-04-08T09:18:41;21.80;35.10
75500;DHT22;64076;51.466;7.260;2023-04-08T09:21:11;21.80;35.00
75500;DHT22;64076;51.466;7.260;2023-04-08T09:23:50;21.80;34.90
75500;DHT22;64076;51.466;7.260;2023-04-08T09:26:21;21.80;34.80
75500;DHT22;64076;51.466;7.260;2023-04-08T09:29:07;21.80;34.70
75500;DHT22;64076;51.466;7.260;2023-04-08T09:31:38;21.80;34.70
75500;DHT22;64076;51.466;7.260;2023-04-08T09:34:11;21.80;34.80
75500;DHT22;64076;51.466;7.260;2023-04-08T09:36:37;21.80;34.70
75500;DHT22;64076;51.466;7.260;2023-04-08T09:39:03;21.80;34.80
75500;DHT22;64076;51.466;7.260;2023-04-08T09:41:33;21.80;34.70
75500;DHT22;64076;51.466;7.260;2023-04-08T09:43:59;21.80;34.60
75500;DHT22;64076;51.466;7.260;2023-04-08T09:46:39;21.80;34.50
75500;DHT22;64076;51.466;7.260;2023-04-08T09:49:12;21.80;34.40
75500;DHT22;64076;51.466;7.260;2023-04-08T09:52:07;21.80;34.40
75500;DHT22;64076;51.466;7.260;2023-04-08T09:54:50;21.80;34.40
75500;DHT22;64076;51.466;7.260;2023-04-08T09:57:40;21.80;34.40
75500;DHT22;64076;51.466;7.260;2023-04-08T10:02:40;21.80;34.20
75500;DHT22;64076;51.466;7.260;2023-04-08T10:05:12;21.80;34.20
75500;DHT22;64076;51.466;7.260;2023-04-08T10:07:38;21.80;34.30
75500;DHT22;64076;51.466;7.260;2023-04-08T10:10:05;21.80;34.20
75500;DHT22;64076;51.466;7.260;2023-04-08T10:12:31;21.70;34.20
75500;DHT22;64076;51.466;7.260;2023-04-08T10:15:49;21.80;34.10
75500;DHT22;64076;51.466;7.260;2023-04-08T10:25:33;21.80;34.10
75500;DHT22;64076;51.466;7.260;2023-04-08T10:28:01;21.80;34.20
75500;DHT22;64076;51.466;7.260;2023-04-08T10:32:53;21.80;34.30
75500;DHT22;64076;51.466;7.260;2023-04-08T10:35:31;21.80;34.30
75500;DHT22;64076;51.466;7.260;2023-04-08T10:37:58;21.80;34.40
75500;DHT22;64076;51.466;7.260;2023-04-08T10:40:24;21.80;34.40
75500;DHT22;64076;51.466;7.260;2023-04-08T10:42:56;21.80;34.40
75500;DHT22;64076;51.466;7.260;2023-04-08T10:45:22;21.80;34.40
75500;DHT22;64076;51.466;7.260;2023-04-08T10:47:48;21.90;34.40
75500;DHT22;64076;51.466;7.260;2023-04-08T10:50:15;21.90;34.40
75500;DHT22;64076;51.466;7.260;2023-04-08T10:52:52;21.90;34.30
75500;DHT22;64076;51.466;7.260;2023-04-08T10:55:22;22.00;34.30
75500;DHT22;64076;51.466;7.260;2023-04-08T10:57:49;22.00;34.30
75500;DHT22;64076;51.466;7.260;2023-04-08T11:00:31;22.00;34.30
75500;DHT22;64076;51.466;7.260;2023-04-08T11:03:00;22.10;34.30
75500;DHT22;64076;51.466;7.260;2023-04-08T11:05:25;22.10;34.40
75500;DHT22;64076;51.466;7.260;2023-04-08T11:07:51;22.10;34.40
75500;DHT22;64076;51.466;7.260;2023-04-08T11:10:17;22.10;34.40
75500;DHT22;64076;51.466;7.260;2023-04-08T11:12:43;22.10;34.40
75500;DHT22;64076;51.466;7.260;2023-04-08T11:15:09;22.10;34.50
75500;DHT22;64076;51.466;7.260;2023-04-08T11:17:35;22.10;34.50
75500;DHT22;64076;51.466;7.260;2023-04-08T11:20:02;22.10;34.60
75500;DHT22;64076;51.466;7.260;2023-04-08T11:22:30;22.20;34.70
75500;DHT22;64076;51.466;7.260;2023-04-08T11:24:58;22.20;34.70
75500;DHT22;64076;51.466;7.260;2023-04-08T11:27:24;22.20;34.70
75500;DHT22;64076;51.466;7.260;2023-04-08T11:29:54;22.20;34.80
75500;DHT22;64076;51.466;7.260;2023-04-08T11:32:21;22.20;34.90
75500;DHT22;64076;51.466;7.260;2023-04-08T11:34:48;22.20;35.00
75500;DHT22;64076;51.466;7.260;2023-04-08T11:37:14;22.20;35.10
75500;DHT22;64076;51.466;7.260;2023-04-08T11:39:42;22.20;35.10
75500;DHT22;64076;51.466;7.260;2023-04-08T11:42:07;22.30;35.20
75500;DHT22;64076;51.466;7.260;2023-04-08T11:44:33;22.30;35.00
75500;DHT22;64076;51.466;7.260;2023-04-08T11:46:58;22.30;35.10
75500;DHT22;64076;51.466;7.260;2023-04-08T11:49:26;22.30;35.10
75500;DHT22;64076;51.466;7.260;2023-04-08T11:51:59;22.30;35.20
75500;DHT22;64076;51.466;7.260;2023-04-08T11:54:26;22.30;35.20
75500;DHT22;64076;51.466;7.260;2023-04-08T11:56:52;22.30;35.20
75500;DHT22;64076;51.466;7.260;2023-04-08T11:59:18;22.40;35.20
75500;DHT22;64076;51.466;7.260;2023-04-08T12:01:43;22.40;35.20
75500;DHT22;64076;51.466;7.260;2023-04-08T12:04:10;22.40;35.30
75500;DHT22;64076;51.466;7.260;2023-04-08T12:06:35;22.50;35.30
75500;DHT22;64076;51.466;7.260;2023-04-08T12:09:01;22.50;35.30
75500;DHT22;64076;51.466;7.260;2023-04-08T12:11:26;22.50;35.30
75500;DHT22;64076;51.466;7.260;2023-04-08T12:13:52;22.50;35.30
75500;DHT22;64076;51.466;7.260;2023-04-08T12:16:18;22.50;35.30
75500;DHT22;64076;51.466;7.260;2023-04-08T12:18:44;22.50;35.50
75500;DHT22;64076;51.466;7.260;2023-04-08T12:21:10;22.50;35.50
75500;DHT22;64076;51.466;7.260;2023-04-08T12:23:35;22.50;35.50
75500;DHT22;64076;51.466;7.260;2023-04-08T12:26:01;22.50;35.50
75500;DHT22;64076;51.466;7.260;2023-04-08T12:28:26;22.50;35.50
75500;DHT22;64076;51.466;7.260;2023-04-08T12:30:52;22.50;35.50
75500;DHT22;64076;51.466;7.260;2023-04-08T12:33:17;22.50;35.50
75500;DHT22;64076;51.466;7.260;2023-04-08T12:35:43;22.50;35.60
75500;DHT22;64076;51.466;7.260;2023-04-08T12:38:09;22.50;35.70
75500;DHT22;64076;51.466;7.260;2023-04-08T12:40:34;22.50;35.70
75500;DHT22;64076;51.466;7.260;2023-04-08T12:43:00;22.50;35.80
75500;DHT22;64076;51.466;7.260;2023-04-08T12:45:26;22.50;35.80
75500;DHT22;64076;51.466;7.260;2023-04-08T12:47:51;22.50;35.90
75500;DHT22;64076;51.466;7.260;2023-04-08T12:50:17;22.50;36.00
75500;DHT22;64076;51.466;7.260;2023-04-08T12:52:42;22.50;36.00
75500;DHT22;64076;51.466;7.260;2023-04-08T12:55:08;22.50;35.90
75500;DHT22;64076;51.466;7.260;2023-04-08T12:57:34;22.50;35.80
75500;DHT22;64076;51.466;7.260;2023-04-08T12:59:59;22.50;35.90
75500;DHT22;64076;51.466;7.260;2023-04-08T13:02:25;22.50;35.90
75500;DHT22;64076;51.466;7.260;2023-04-08T13:04:51;22.50;35.90
75500;DHT22;64076;51.466;7.260;2023-04-08T13:07:17;22.50;36.00
75500;DHT22;64076;51.466;7.260;2023-04-08T13:09:43;22.60;35.90
75500;DHT22;64076;51.466;7.260;2023-04-08T13:12:09;22.60;35.90
75500;DHT22;64076;51.466;7.260;2023-04-08T13:14:36;22.60;35.90
75500;DHT22;64076;51.466;7.260;2023-04-08T13:17:02;22.60;35.90
75500;DHT22;64076;51.466;7.260;2023-04-08T13:19:28;22.60;35.90
75500;DHT22;64076;51.466;7.260;2023-04-08T13:21:53;22.60;35.90
75500;DHT22;64076;51.466;7.260;2023-04-08T13:24:19;22.60;35.90
75500;DHT22;64076;51.466;7.260;2023-04-08T13:26:44;22.60;35.90
75500;DHT22;64076;51.466;7.260;2023-04-08T13:29:10;22.60;36.00
75500;DHT22;64076;51.466;7.260;2023-04-08T13:31:36;22.60;36.00
75500;DHT22;64076;51.466;7.260;2023-04-08T13:34:01;22.60;36.00
75500;DHT22;64076;51.466;7.260;2023-04-08T13:36:27;22.60;36.10
75500;DHT22;64076;51.466;7.260;2023-04-08T13:38:56;22.60;36.10
75500;DHT22;64076;51.466;7.260;2023-04-08T13:41:22;22.60;36.10
75500;DHT22;64076;51.466;7.260;2023-04-08T13:43:47;22.60;36.20
75500;DHT22;64076;51.466;7.260;2023-04-08T13:46:13;22.60;36.20
75500;DHT22;64076;51.466;7.260;2023-04-08T13:48:38;22.60;36.20
75500;DHT22;64076;51.466;7.260;2023-04-08T13:51:04;22.60;36.40
75500;DHT22;64076;51.466;7.260;2023-04-08T13:53:29;22.60;36.40
75500;DHT22;64076;51.466;7.260;2023-04-08T13:55:55;22.60;36.30
75500;DHT22;64076;51.466;7.260;2023-04-08T13:58:23;22.60;36.60
75500;DHT22;64076;51.466;7.260;2023-04-08T14:00:49;22.60;36.40
75500;DHT22;64076;51.466;7.260;2023-04-08T14:03:15;22.60;36.30
75500;DHT22;64076;51.466;7.260;2023-04-08T14:05:41;22.70;36.30
75500;DHT22;64076;51.466;7.260;2023-04-08T14:08:07;22.70;36.30
75500;DHT22;64076;51.466;7.260;2023-04-08T14:10:32;22.60;36.40
75500;DHT22;64076;51.466;7.260;2023-04-08T14:12:58;22.60;36.60
75500;DHT22;64076;51.466;7.260;2023-04-08T14:15:23;22.60;36.50
75500;DHT22;64076;51.466;7.260;2023-04-08T14:17:49;22.50;36.60
75500;DHT22;64076;51.466;7.260;2023-04-08T14:20:15;22.50;36.50
75500;DHT22;64076;51.466;7.260;2023-04-08T14:22:41;22.50;36.50
75500;DHT22;64076;51.466;7.260;2023-04-08T14:25:07;22.40;36.60
75500;DHT22;64076;51.466;7.260;2023-04-08T14:27:32;22.40;36.60
75500;DHT22;64076;51.466;7.260;2023-04-08T14:29:58;22.40;36.60
75500;DHT22;64076;51.466;7.260;2023-04-08T14:32:23;22.40;36.80
75500;DHT22;64076;51.466;7.260;2023-04-08T14:34:49;22.40;36.80
75500;DHT22;64076;51.466;7.260;2023-04-08T14:37:14;22.40;36.70
75500;DHT22;64076;51.466;7.260;2023-04-08T14:39:42;22.40;36.70
75500;DHT22;64076;51.466;7.260;2023-04-08T14:42:08;22.40;36.80
75500;DHT22;64076;51.466;7.260;2023-04-08T14:44:33;22.30;36.70
75500;DHT22;64076;51.466;7.260;2023-04-08T14:46:59;22.30;36.80
75500;DHT22;64076;51.466;7.260;2023-04-08T14:49:24;22.40;36.80
75500;DHT22;64076;51.466;7.260;2023-04-08T14:51:50;22.40;36.80
75500;DHT22;64076;51.466;7.260;2023-04-08T14:54:15;22.30;36.80
75500;DHT22;64076;51.466;7.260;2023-04-08T14:56:43;22.30;36.70
75500;DHT22;64076;51.466;7.260;2023-04-08T14:59:09;22.30;36.70
75500;DHT22;64076;51.466;7.260;2023-04-08T15:01:34;22.30;36.80
75500;DHT22;64076;51.466;7.260;2023-04-08T15:04:00;22.30;36.80
75500;DHT22;64076;51.466;7.260;2023-04-08T15:06:26;22.40;36.70
75500;DHT22;64076;51.466;7.260;2023-04-08T15:08:52;22.30;36.80
75500;DHT22;64076;51.466;7.260;2023-04-08T15:11:18;22.40;36.80
75500;DHT22;64076;51.466;7.260;2023-04-08T15:13:45;22.40;36.70
75500;DHT22;64076;51.466;7.260;2023-04-08T15:16:11;22.50;36.70
75500;DHT22;64076;51.466;7.260;2023-04-08T15:18:36;22.50;36.60
75500;DHT22;64076;51.466;7.260;2023-04-08T15:21:02;22.60;36.50
75500;DHT22;64076;51.466;7.260;2023-04-08T15:23:28;22.60;36.50
75500;DHT22;64076;51.466;7.260;2023-04-08T15:25:55;22.60;36.60
75500;DHT22;64076;51.466;7.260;2023-04-08T15:28:21;22.60;36.60
75500;DHT22;64076;51.466;7.260;2023-04-08T15:30:48;22.60;36.60
75500;DHT22;64076;51.466;7.260;2023-04-08T15:33:13;22.60;36.60
75500;DHT22;64076;51.466;7.260;2023-04-08T15:35:39;22.60;36.60
75500;DHT22;64076;51.466;7.260;2023-04-08T15:38:05;22.60;36.60
75500;DHT22;64076;51.466;7.260;2023-04-08T15:40:32;22.60;36.60
75500;DHT22;64076;51.466;7.260;2023-04-08T15:42:58;22.60;36.50
75500;DHT22;64076;51.466;7.260;2023-04-08T15:45:23;22.60;36.50